Time;durP1;ratioP1;P1;durP2;ratioP2;P2;SDS_P1;SDS_P2;PMS_P1;PMS_P2;Temp;Humidity;BMP_temperature;BMP_pressure;BME280_temperature;BME280_humidity;BME280_pressure;Samples;Min_cycle;Max_cycle;Signal;HPM_P1;HPM_P2
2023/01/24 00:00:41;;;;;;;;;;;11.90;93.20;;;;;;5054329;28;20015;-68
2023/01/24 00:03:11;;;;;;;;;;;11.80;93.10;;;;;;5037249;28;19920;-71
2023/01/24 00:05:40;;;;;;;;;;;;;;;;;;5016312;28;20414;-71
2023/01/24 00:08:09;;;;;;;;;;;11.50;93.00;;;;;;5043494;28;19920;-70
2023/01/24 00:10:36;;;;;;;;;;;11.60;93.00;;;;;;5036688;28;19927;-71
2023/01/24 00:13:02;;;;;;;;;;;11.90;93.10;;;;;;5054143;28;19926;-71
2023/01/24 00:15:30;;;;;;;;;;;11.90;93.10;;;;;;5037598;28;19921;-68
2023/01/24 00:17:56;;;;;;;;;;;;;;;;;;5034354;28;19924;-68
2023/01/24 00:20:29;;;;;;;;;;;11.90;93.10;;;;;;5054197;28;19921;-68
2023/01/24 00:22:55;;;;;;;;;;;11.90;93.10;;;;;;5015996;28;19928;-68
2023/01/24 00:25:23;;;;;;;;;;;11.90;93.00;;;;;;5042259;28;20011;-68
2023/01/24 00:27:49;;;;;;;;;;;11.50;93.00;;;;;;5053350;28;20290;-69
2023/01/24 00:30:23;;;;;;;;;;;12.00;93.10;;;;;;5035917;28;19920;-68
2023/01/24 00:32:49;;;;;;;;;;;11.70;93.00;;;;;;5052282;28;19920;-68
2023/01/24 00:35:18;;;;;;;;;;;11.90;93.10;;;;;;5036277;28;20011;-67
2023/01/24 00:37:44;;;;;;;;;;;;;;;;;;5036189;28;19928;-63
2023/01/24 00:40:10;;;;;;;;;;;;;;;;;;5053637;28;20420;-68
2023/01/24 00:42:36;;;;;;;;;;;11.80;93.00;;;;;;5035889;28;19921;-68
2023/01/24 00:45:02;;;;;;;;;;;11.80;93.00;;;;;;5053619;28;20346;-69
2023/01/24 00:47:29;;;;;;;;;;;11.80;93.00;;;;;;5053422;28;19921;-68
2023/01/24 00:49:57;;;;;;;;;;;11.90;93.00;;;;;;5052730;28;19924;-68
2023/01/24 00:52:23;;;;;;;;;;;11.70;92.90;;;;;;5035865;28;19925;-70
2023/01/24 00:54:49;;;;;;;;;;;11.80;93.00;;;;;;5053776;28;19927;-71
2023/01/24 00:57:16;;;;;;;;;;;11.70;92.90;;;;;;5036893;28;20305;-71
2023/01/24 00:59:42;;;;;;;;;;;;;;;;;;5035095;28;19921;-71
2023/01/24 01:02:08;;;;;;;;;;;11.80;93.00;;;;;;5053463;28;20374;-69
2023/01/24 01:04:36;;;;;;;;;;;11.60;93.00;;;;;;5035457;28;19920;-71
2023/01/24 01:07:02;;;;;;;;;;;11.80;93.00;;;;;;5053248;28;19928;-69
2023/01/24 01:09:28;;;;;;;;;;;11.50;92.90;;;;;;5052471;28;20291;-71
2023/01/24 01:11:54;;;;;;;;;;;11.70;92.90;;;;;;5053424;28;19920;-68
2023/01/24 01:14:24;;;;;;;;;;;11.80;93.00;;;;;;5035232;28;19928;-68
2023/01/24 01:16:57;;;;;;;;;;;12.10;93.00;;;;;;5018722;28;20421;-71
2023/01/24 01:19:24;;;;;;;;;;;11.90;93.00;;;;;;4999099;28;19957;-68
2023/01/24 01:21:50;;;;;;;;;;;11.50;92.80;;;;;;5047366;28;19921;-69
2023/01/24 01:24:15;;;;;;;;;;;11.70;92.90;;;;;;5044275;28;20450;-69
2023/01/24 01:26:41;;;;;;;;;;;11.60;92.90;;;;;;5034055;28;20003;-68
2023/01/24 01:29:09;;;;;;;;;;;11.60;92.90;;;;;;5009854;28;19920;-68
2023/01/24 01:31:35;;;;;;;;;;;11.80;92.90;;;;;;5047208;28;19920;-68
2023/01/24 01:34:04;;;;;;;;;;;;;;;;;;5035398;28;19921;-65
2023/01/24 01:36:30;;;;;;;;;;;;;;;;;;5053671;28;19928;-68
2023/01/24 01:38:59;;;;;;;;;;;11.70;92.90;;;;;;5053353;28;19967;-68
2023/01/24 01:41:25;;;;;;;;;;;11.90;92.90;;;;;;5033956;28;20011;-71
2023/01/24 01:46:38;;;;;;;;;;;11.80;92.80;;;;;;5033026;28;19921;-69
2023/01/24 01:49:04;;;;;;;;;;;11.70;92.80;;;;;;5018608;28;19928;-71
2023/01/24 01:51:42;;;;;;;;;;;12.00;92.90;;;;;;5042523;28;19927;-71
2023/01/24 01:54:09;;;;;;;;;;;11.90;92.90;;;;;;5035517;28;19928;-70
2023/01/24 01:56:37;;;;;;;;;;;11.80;92.80;;;;;;5051913;28;19932;-71
2023/01/24 01:59:09;;;;;;;;;;;11.70;92.80;;;;;;5018967;28;19921;-70
2023/01/24 02:01:35;;;;;;;;;;;;;;;;;;5017212;28;19968;-71
2023/01/24 02:04:06;;;;;;;;;;;11.90;92.80;;;;;;5052700;28;19920;-70
2023/01/24 02:06:32;;;;;;;;;;;;;;;;;;5052666;28;19921;-70
2023/01/24 02:08:58;;;;;;;;;;;11.60;92.80;;;;;;5052234;28;19924;-69
2023/01/24 02:11:39;;;;;;;;;;;11.70;92.80;;;;;;5035246;28;19928;-68
2023/01/24 02:16:53;;;;;;;;;;;11.60;92.70;;;;;;5052472;28;19927;-69
2023/01/24 02:19:33;;;;;;;;;;;11.90;92.80;;;;;;5034533;28;20405;-67
2023/01/24 02:22:04;;;;;;;;;;;11.80;92.80;;;;;;5020704;28;20326;-68
2023/01/24 02:24:33;;;;;;;;;;;11.60;92.70;;;;;;5055154;28;19925;-68
2023/01/24 02:26:59;;;;;;;;;;;11.70;92.80;;;;;;5055442;28;20436;-70
2023/01/24 02:29:25;;;;;;;;;;;11.70;92.80;;;;;;5056498;28;19924;-69
2023/01/24 02:32:00;;;;;;;;;;;11.80;92.80;;;;;;5034770;28;19921;-70
2023/01/24 02:34:26;;;;;;;;;;;11.90;92.40;;;;;;5040516;28;19944;-70
2023/01/24 02:36:53;;;;;;;;;;;11.70;92.80;;;;;;5026784;28;19924;-69
2023/01/24 02:39:21;;;;;;;;;;;11.70;92.80;;;;;;5055908;28;19968;-70
2023/01/24 02:41:47;;;;;;;;;;;;;;;;;;5038388;28;19966;-70
2023/01/24 02:44:13;;;;;;;;;;;;;;;;;;5054452;28;19928;-68
2023/01/24 02:46:44;;;;;;;;;;;11.80;92.70;;;;;;5055549;28;19921;-68
2023/01/24 02:49:10;;;;;;;;;;;11.90;92.40;;;;;;5055562;28;20061;-68
2023/01/24 02:54:23;;;;;;;;;;;11.90;92.80;;;;;;5055325;28;19921;-67
2023/01/24 02:59:33;;;;;;;;;;;11.70;92.80;;;;;;5056075;28;20007;-69
2023/01/24 03:01:59;;;;;;;;;;;11.50;92.70;;;;;;5054768;28;20314;-69
2023/01/24 03:04:24;;;;;;;;;;;11.90;92.80;;;;;;5054488;28;19920;-68
2023/01/24 03:06:53;;;;;;;;;;;11.60;92.70;;;;;;5037302;28;19928;-67
2023/01/24 03:09:20;;;;;;;;;;;11.70;92.70;;;;;;5055607;28;20019;-68
2023/01/24 03:11:46;;;;;;;;;;;11.90;92.80;;;;;;5037859;28;19947;-68
2023/01/24 03:36:15;;;;;;;;;;;;;;;;;;5054023;28;20294;-67
2023/01/24 03:41:29;;;;;;;;;;;;;;;;;;5053903;28;20431;-67
2023/01/24 03:43:55;;;;;;;;;;;11.70;92.70;;;;;;5036800;28;20019;-68
2023/01/24 03:46:21;;;;;;;;;;;;;;;;;;5054082;28;20015;-66
2023/01/24 03:48:47;;;;;;;;;;;11.70;92.70;;;;;;5056014;28;20408;-67
2023/01/24 03:54:03;;;;;;;;;;;11.60;92.70;;;;;;5054457;28;19986;-71
2023/01/24 03:56:31;;;;;;;;;;;11.70;92.70;;;;;;5037496;28;19921;-67
2023/01/24 03:58:57;;;;;;;;;;;11.50;92.60;;;;;;5002543;28;19921;-67
2023/01/24 04:01:26;;;;;;;;;;;11.80;92.70;;;;;;5034695;28;19921;-68
2023/01/24 04:03:51;;;;;;;;;;;11.70;92.60;;;;;;5045501;28;19921;-67
2023/01/24 04:06:18;;;;;;;;;;;11.60;92.60;;;;;;5054228;28;20006;-68
2023/01/24 04:08:46;;;;;;;;;;;11.80;92.60;;;;;;5052418;28;19951;-67
2023/01/24 04:11:13;;;;;;;;;;;;;;;;;;5036659;28;19928;-68
2023/01/24 04:13:48;;;;;;;;;;;;;;;;;;;;;
2023/01/24 04:16:24;;;;;;;;;;;11.50;92.60;;;;;;5032643;28;19927;-68
2023/01/24 04:18:50;;;;;;;;;;;11.80;92.60;;;;;;5023710;28;19928;-69
2023/01/24 04:21:15;;;;;;;;;;;11.70;92.60;;;;;;5036507;28;19966;-70
2023/01/24 04:23:41;;;;;;;;;;;11.70;92.60;;;;;;5054436;28;19921;-70
2023/01/24 04:26:07;;;;;;;;;;;11.80;92.60;;;;;;5036850;28;19960;-71
2023/01/24 04:28:34;;;;;;;;;;;;;;;;;;5052679;28;19927;-70
2023/01/24 04:31:00;;;;;;;;;;;;;;;;;;5052750;28;19928;-71
2023/01/24 04:33:26;;;;;;;;;;;11.60;92.20;;;;;;5054257;28;19927;-70
2023/01/24 04:35:55;;;;;;;;;;;11.60;92.50;;;;;;5054290;28;20031;-71
2023/01/24 04:38:21;;;;;;;;;;;11.40;92.40;;;;;;5053813;28;20367;-70
2023/01/24 04:40:49;;;;;;;;;;;11.60;92.50;;;;;;5034072;28;19927;-68
2023/01/24 04:43:15;;;;;;;;;;;11.70;92.50;;;;;;5053942;28;20011;-68
2023/01/24 04:45:43;;;;;;;;;;;11.30;92.50;;;;;;5052255;28;19976;-68
2023/01/24 04:48:09;;;;;;;;;;;11.60;92.50;;;;;;5054248;28;20290;-70
2023/01/24 04:50:35;;;;;;;;;;;;;;;;;;5034080;28;19928;-70
2023/01/24 04:53:00;;;;;;;;;;;11.70;92.50;;;;;;5035694;28;20432;-70
2023/01/24 04:55:29;;;;;;;;;;;11.80;92.60;;;;;;5054260;28;19921;-70
2023/01/24 04:57:55;;;;;;;;;;;11.50;92.50;;;;;;5042534;28;19951;-71
2023/01/24 05:00:21;;;;;;;;;;;;;;;;;;5039264;28;19920;-71
2023/01/24 05:02:47;;;;;;;;;;;11.70;92.50;;;;;;5053002;28;19964;-70
2023/01/24 05:05:13;;;;;;;;;;;11.70;92.50;;;;;;5032401;28;19921;-69
2023/01/24 05:07:39;;;;;;;;;;;11.60;92.50;;;;;;5035481;28;19927;-71
2023/01/24 05:10:05;;;;;;;;;;;11.60;92.40;;;;;;5052494;28;19921;-70
2023/01/24 05:12:31;;;;;;;;;;;11.50;92.40;;;;;;5053044;28;19928;-69
2023/01/24 05:14:56;;;;;;;;;;;11.40;92.30;;;;;;5053451;28;19920;-70
2023/01/24 05:17:24;;;;;;;;;;;11.60;92.30;;;;;;5019141;28;19920;-69
2023/01/24 05:19:53;;;;;;;;;;;11.60;92.40;;;;;;5053922;28;19925;-69
2023/01/24 05:22:19;;;;;;;;;;;;;;;;;;5052686;28;19921;-68
2023/01/24 05:24:45;;;;;;;;;;;11.30;92.30;;;;;;5035596;28;20359;-69
2023/01/24 05:27:11;;;;;;;;;;;11.50;92.30;;;;;;5053811;28;19921;-67
2023/01/24 05:29:39;;;;;;;;;;;11.50;92.30;;;;;;5035583;28;19928;-68
2023/01/24 05:32:05;;;;;;;;;;;;;;;;;;5050769;28;19942;-68
2023/01/24 05:34:32;;;;;;;;;;;;;;;;;;5052514;28;19920;-67
2023/01/24 05:36:58;;;;;;;;;;;;;;;;;;5052999;28;19969;-68
2023/01/24 05:39:24;;;;;;;;;;;11.10;92.10;;;;;;5053748;28;19920;-69
2023/01/24 05:41:53;;;;;;;;;;;11.50;92.20;;;;;;5052146;28;19931;-68
2023/01/24 05:44:26;;;;;;;;;;;11.30;92.20;;;;;;5052835;28;20010;-68
2023/01/24 05:46:52;;;;;;;;;;;11.20;92.20;;;;;;5032020;28;19974;-68
2023/01/24 05:49:20;;;;;;;;;;;11.60;92.30;;;;;;5031974;28;19921;-68
2023/01/24 05:51:45;;;;;;;;;;;11.60;92.20;;;;;;5030761;28;19952;-69
2023/01/24 05:54:11;;;;;;;;;;;11.50;92.20;;;;;;5029494;28;19937;-68
2023/01/24 05:56:37;;;;;;;;;;;11.40;92.20;;;;;;5032422;28;19923;-68
2023/01/24 05:59:03;;;;;;;;;;;11.40;92.20;;;;;;5035473;28;19921;-68
2023/01/24 06:01:32;;;;;;;;;;;11.70;92.20;;;;;;5035807;28;20048;-68
2023/01/24 06:04:01;;;;;;;;;;;11.50;92.10;;;;;;5030017;28;19921;-67
2023/01/24 06:06:27;;;;;;;;;;;11.60;92.20;;;;;;5033921;28;20447;-70
2023/01/24 06:08:55;;;;;;;;;;;11.40;92.20;;;;;;5019335;28;19928;-67
2023/01/24 06:11:27;;;;;;;;;;;11.30;92.20;;;;;;5037027;28;20358;-68
2023/01/24 06:13:53;;;;;;;;;;;11.40;92.10;;;;;;5035831;28;19932;-70
2023/01/24 06:16:20;;;;;;;;;;;;;;;;;;5019463;28;20318;-71
2023/01/24 06:18:46;;;;;;;;;;;11.60;92.20;;;;;;5035190;28;19964;-70
2023/01/24 06:21:13;;;;;;;;;;;11.50;92.20;;;;;;5035727;28;19920;-71
2023/01/24 06:23:39;;;;;;;;;;;11.40;92.20;;;;;;5034885;28;20291;-70
2023/01/24 06:26:07;;;;;;;;;;;11.50;92.20;;;;;;5034491;28;19920;-71
2023/01/24 06:28:35;;;;;;;;;;;11.50;92.20;;;;;;5035561;28;19928;-68
2023/01/24 06:31:09;;;;;;;;;;;11.30;92.10;;;;;;5036165;28;19967;-69
2023/01/24 06:34:05;;;;;;;;;;;11.20;92.10;;;;;;5036091;28;20291;-68
2023/01/24 06:36:31;;;;;;;;;;;11.40;92.10;;;;;;5032967;28;19920;-68
2023/01/24 06:38:57;;;;;;;;;;;11.50;92.20;;;;;;5036311;28;20000;-68
2023/01/24 06:41:24;;;;;;;;;;;11.30;92.10;;;;;;5034361;28;20282;-68
2023/01/24 06:43:50;;;;;;;;;;;;;;;;;;5035269;28;19948;-69
2023/01/24 06:46:18;;;;;;;;;;;11.60;92.30;;;;;;5034650;28;20295;-68
2023/01/24 06:48:45;;;;;;;;;;;11.00;92.10;;;;;;5052008;28;19928;-69
2023/01/24 06:51:16;;;;;;;;;;;11.60;92.30;;;;;;5037117;28;19921;-67
2023/01/24 06:53:45;;;;;;;;;;;11.40;92.10;;;;;;5032767;28;20321;-68
2023/01/24 06:56:11;;;;;;;;;;;11.50;92.10;;;;;;5034478;28;20024;-68
2023/01/24 06:58:39;;;;;;;;;;;11.50;92.00;;;;;;5034062;28;19921;-66
2023/01/24 07:01:08;;;;;;;;;;;;;;;;;;5050161;28;19921;-69
2023/01/24 07:03:34;;;;;;;;;;;11.40;92.10;;;;;;5033583;28;19921;-68
2023/01/24 07:06:01;;;;;;;;;;;11.30;92.00;;;;;;5036156;28;19947;-67
2023/01/24 07:08:34;;;;;;;;;;;11.40;92.00;;;;;;5035322;28;19921;-66
2023/01/24 07:11:00;;;;;;;;;;;11.30;92.00;;;;;;5051542;28;19931;-68
2023/01/24 07:13:26;;;;;;;;;;;11.40;92.10;;;;;;5034359;28;19921;-67
2023/01/24 07:15:59;;;;;;;;;;;11.50;92.00;;;;;;5033920;28;20059;-68
2023/01/24 07:18:25;;;;;;;;;;;11.40;92.00;;;;;;5034798;28;19921;-68
2023/01/24 07:20:54;;;;;;;;;;;11.40;92.00;;;;;;5034226;28;19927;-67
2023/01/24 07:23:22;;;;;;;;;;;;;;;;;;5034836;28;19932;-67
2023/01/24 07:25:54;;;;;;;;;;;11.50;92.00;;;;;;5034965;28;19967;-68
2023/01/24 07:28:21;;;;;;;;;;;;;;;;;;5032796;28;20276;-66
2023/01/24 07:30:47;;;;;;;;;;;11.40;92.00;;;;;;5035086;28;19927;-71
2023/01/24 07:33:16;;;;;;;;;;;;;;;;;;5049789;28;19943;-70
2023/01/24 07:35:43;;;;;;;;;;;11.40;92.00;;;;;;5035374;28;19921;-68
2023/01/24 07:38:09;;;;;;;;;;;11.40;91.90;;;;;;5013753;28;19968;-70
2023/01/24 07:40:36;;;;;;;;;;;11.50;92.10;;;;;;5015821;28;19928;-71
2023/01/24 07:43:02;;;;;;;;;;;11.40;92.00;;;;;;5033838;28;19921;-68
2023/01/24 07:45:28;;;;;;;;;;;11.40;92.00;;;;;;5034031;28;19944;-70
2023/01/24 07:47:57;;;;;;;;;;;11.40;92.00;;;;;;5054804;28;19920;-70
2023/01/24 07:50:26;;;;;;;;;;;;;;;;;;5036721;28;19970;-70
2023/01/24 07:52:56;;;;;;;;;;;11.40;91.90;;;;;;5054827;28;19968;-70
2023/01/24 07:55:22;;;;;;;;;;;11.60;92.00;;;;;;5017033;28;20302;-74
2023/01/24 07:57:49;;;;;;;;;;;11.70;92.00;;;;;;5036164;28;19921;-67
2023/01/24 08:00:15;;;;;;;;;;;11.60;91.90;;;;;;5040478;28;19924;-69
2023/01/24 08:02:41;;;;;;;;;;;;;;;;;;5052771;28;19962;-67
2023/01/24 08:05:12;;;;;;;;;;;11.60;91.80;;;;;;5035457;28;19924;-68
2023/01/24 08:07:39;;;;;;;;;;;11.40;91.80;;;;;;5054855;28;20294;-68
2023/01/24 08:10:08;;;;;;;;;;;;;;;;;;5054359;28;20264;-68
2023/01/24 08:12:33;;;;;;;;;;;11.70;91.80;;;;;;5035827;28;20400;-70
2023/01/24 08:14:59;;;;;;;;;;;11.50;91.80;;;;;;5053891;28;20015;-69
2023/01/24 08:17:25;;;;;;;;;;;11.80;92.00;;;;;;5054856;28;19928;-70
2023/01/24 08:19:50;;;;;;;;;;;11.60;91.90;;;;;;5054174;28;20331;-68
2023/01/24 08:22:16;;;;;;;;;;;11.40;91.70;;;;;;5051773;28;19924;-70
2023/01/24 08:24:42;;;;;;;;;;;11.40;91.70;;;;;;5054593;28;19920;-69
2023/01/24 08:27:08;;;;;;;;;;;11.20;91.70;;;;;;5053658;28;20023;-70
2023/01/24 08:29:34;;;;;;;;;;;11.50;91.70;;;;;;5054619;28;19928;-70
2023/01/24 08:31:59;;;;;;;;;;;11.50;91.70;;;;;;5033088;28;19964;-70
2023/01/24 08:34:28;;;;;;;;;;;11.70;91.80;;;;;;5047015;28;20002;-70
2023/01/24 08:36:54;;;;;;;;;;;11.70;91.80;;;;;;5043791;28;19970;-70
2023/01/24 08:39:20;;;;;;;;;;;;;;;;;;5043201;28;19971;-70
2023/01/24 08:41:46;;;;;;;;;;;11.60;91.70;;;;;;5051872;28;19927;-68
2023/01/24 08:44:12;;;;;;;;;;;11.40;91.70;;;;;;5053519;28;20286;-70
2023/01/24 08:46:38;;;;;;;;;;;;;;;;;;5052632;28;19968;-70
2023/01/24 08:49:04;;;;;;;;;;;;;;;;;;5054203;28;19928;-70
2023/01/24 08:51:30;;;;;;;;;;;11.80;91.90;;;;;;5053955;28;19948;-71
2023/01/24 08:53:56;;;;;;;;;;;11.70;91.80;;;;;;5054250;28;19921;-69
2023/01/24 08:56:21;;;;;;;;;;;11.50;91.80;;;;;;5051250;28;19964;-68
2023/01/24 08:58:47;;;;;;;;;;;11.40;91.70;;;;;;5053686;28;19927;-67
2023/01/24 09:01:13;;;;;;;;;;;11.80;91.70;;;;;;5036306;28;19921;-68
2023/01/24 09:03:39;;;;;;;;;;;11.80;91.70;;;;;;5032528;28;20392;-68
2023/01/24 09:06:05;;;;;;;;;;;11.90;91.70;;;;;;5027590;28;19972;-70
2023/01/24 09:08:31;;;;;;;;;;;11.90;91.70;;;;;;5031695;28;19921;-70
2023/01/24 09:10:57;;;;;;;;;;;;;;;;;;5033720;28;19921;-65
2023/01/24 09:13:23;;;;;;;;;;;11.60;91.60;;;;;;5049071;28;19974;-68
2023/01/24 09:15:51;;;;;;;;;;;11.70;91.40;;;;;;5051710;28;20689;-67
2023/01/24 09:18:20;;;;;;;;;;;11.50;91.70;;;;;;5053482;28;19967;-67
2023/01/24 09:20:49;;;;;;;;;;;11.70;91.80;;;;;;5036119;28;19966;-69
2023/01/24 09:23:17;;;;;;;;;;;11.80;91.70;;;;;;5053779;28;19929;-68
2023/01/24 09:25:50;;;;;;;;;;;11.80;91.70;;;;;;5052373;28;19972;-69
2023/01/24 09:28:27;;;;;;;;;;;11.70;91.70;;;;;;5035593;28;19970;-67
2023/01/24 09:31:02;;;;;;;;;;;11.90;91.70;;;;;;5054742;28;19928;-69
2023/01/24 09:33:31;;;;;;;;;;;11.60;91.60;;;;;;5056410;28;19921;-68
2023/01/24 09:35:57;;;;;;;;;;;11.60;91.40;;;;;;5039949;28;19925;-67
2023/01/24 09:38:24;;;;;;;;;;;11.90;91.50;;;;;;5054734;28;19921;-68
2023/01/24 09:41:02;;;;;;;;;;;11.50;91.60;;;;;;5039774;28;19921;-68
2023/01/24 09:43:34;;;;;;;;;;;11.70;91.60;;;;;;5057314;28;20017;-68
2023/01/24 09:46:04;;;;;;;;;;;11.80;91.60;;;;;;5056897;28;19920;-68
2023/01/24 09:48:31;;;;;;;;;;;11.80;91.60;;;;;;5054692;28;20002;-71
2023/01/24 09:51:02;;;;;;;;;;;11.60;91.60;;;;;;5039672;28;19921;-68
2023/01/24 09:53:37;;;;;;;;;;;;;;;;;;5057635;28;20030;-68
2023/01/24 09:56:04;;;;;;;;;;;11.80;91.60;;;;;;5057114;28;19921;-68
2023/01/24 09:58:33;;;;;;;;;;;;;;;;;;5022204;28;20417;-67
2023/01/24 10:01:09;;;;;;;;;;;11.90;91.60;;;;;;5056406;28;19921;-70
2023/01/24 10:03:35;;;;;;;;;;;11.80;91.60;;;;;;5056240;28;19921;-69
2023/01/24 10:06:17;;;;;;;;;;;11.70;91.50;;;;;;5018946;28;19921;-69
2023/01/24 10:09:01;;;;;;;;;;;11.80;91.50;;;;;;5022959;28;20286;-68
2023/01/24 10:11:27;;;;;;;;;;;11.70;91.50;;;;;;5038025;28;20397;-70
2023/01/24 10:14:12;;;;;;;;;;;11.80;91.50;;;;;;5039222;28;19921;-68
2023/01/24 10:16:38;;;;;;;;;;;;;;;;;;5056944;28;19920;-68
2023/01/24 10:19:10;;;;;;;;;;;11.50;91.40;;;;;;5039139;28;19967;-68
2023/01/24 10:21:36;;;;;;;;;;;;;;;;;;5038465;28;19920;-66
2023/01/24 10:24:12;;;;;;;;;;;11.70;91.40;;;;;;5038716;28;19924;-68
2023/01/24 10:26:42;;;;;;;;;;;11.50;91.20;;;;;;5056823;28;20019;-68
2023/01/24 10:29:14;;;;;;;;;;;11.60;91.30;;;;;;5022654;28;19921;-68
2023/01/24 10:31:51;;;;;;;;;;;11.70;91.40;;;;;;5056788;28;20325;-70
2023/01/24 10:34:18;;;;;;;;;;;11.80;91.40;;;;;;5038753;28;19921;-70
2023/01/24 10:36:47;;;;;;;;;;;11.60;91.20;;;;;;5056177;28;20289;-70
2023/01/24 10:39:13;;;;;;;;;;;11.50;91.20;;;;;;5055824;28;20388;-70
2023/01/24 10:41:39;;;;;;;;;;;11.60;91.30;;;;;;5054857;28;19921;-66
2023/01/24 10:44:08;;;;;;;;;;;11.70;91.40;;;;;;5038154;28;20325;-68
2023/01/24 10:46:41;;;;;;;;;;;11.70;91.30;;;;;;5034499;28;19964;-69
2023/01/24 10:49:07;;;;;;;;;;;11.60;91.30;;;;;;5035016;28;19988;-69
2023/01/24 10:51:35;;;;;;;;;;;11.60;91.30;;;;;;5035391;28;20438;-68
2023/01/24 10:54:01;;;;;;;;;;;;;;;;;;5038450;28;19931;-67
2023/01/24 10:56:27;;;;;;;;;;;11.70;91.20;;;;;;5056390;28;19928;-69
2023/01/24 10:59:00;;;;;;;;;;;11.70;91.20;;;;;;5071450;28;19972;-69
2023/01/24 11:01:32;;;;;;;;;;;11.80;91.20;;;;;;5069265;28;19921;-69
2023/01/24 11:04:00;;;;;;;;;;;11.70;91.20;;;;;;5038043;28;19921;-69
2023/01/24 11:06:37;;;;;;;;;;;11.90;91.20;;;;;;5022619;28;19921;-68
2023/01/24 11:09:04;;;;;;;;;;;11.80;91.10;;;;;;5055410;28;19921;-69
2023/01/24 11:11:35;;;;;;;;;;;11.90;91.20;;;;;;5021024;28;19947;-68
2023/01/24 11:14:01;;;;;;;;;;;11.70;91.10;;;;;;5035652;28;19928;-68
2023/01/24 11:16:30;;;;;;;;;;;11.80;91.10;;;;;;5035452;28;20300;-67
2023/01/24 11:19:00;;;;;;;;;;;11.50;91.00;;;;;;5017914;28;20371;-67
2023/01/24 11:21:27;;;;;;;;;;;11.60;91.10;;;;;;5035656;28;19928;-67
2023/01/24 11:24:05;;;;;;;;;;;12.00;91.20;;;;;;5035785;28;19920;-67
2023/01/24 11:26:34;;;;;;;;;;;11.80;91.10;;;;;;5035901;28;19921;-67
2023/01/24 11:29:05;;;;;;;;;;;11.90;91.10;;;;;;5024767;28;19925;-70
2023/01/24 11:31:38;;;;;;;;;;;12.00;91.10;;;;;;5037963;28;19966;-70
2023/01/24 11:34:07;;;;;;;;;;;11.70;91.00;;;;;;5055393;28;19974;-68
2023/01/24 11:36:33;;;;;;;;;;;11.50;91.00;;;;;;5055157;28;19929;-67
2023/01/24 11:39:00;;;;;;;;;;;12.10;91.10;;;;;;5052087;28;19970;-71
2023/01/24 11:41:36;;;;;;;;;;;11.70;91.00;;;;;;5037467;28;19920;-70
2023/01/24 11:44:13;;;;;;;;;;;11.70;91.00;;;;;;5021328;28;19921;-70
2023/01/24 11:46:39;;;;;;;;;;;;;;;;;;5053294;28;19921;-68
2023/01/24 11:49:11;;;;;;;;;;;11.90;90.90;;;;;;5054342;28;19921;-68
2023/01/24 11:51:53;;;;;;;;;;;11.80;90.90;;;;;;5055011;28;19921;-67
2023/01/24 11:54:37;;;;;;;;;;;11.80;91.00;;;;;;5037182;28;19924;-68
2023/01/24 11:57:18;;;;;;;;;;;11.80;90.90;;;;;;5053683;28;20295;-68
2023/01/24 11:59:44;;;;;;;;;;;11.70;91.00;;;;;;5036973;28;19920;-67
2023/01/24 12:02:30;;;;;;;;;;;12.00;91.00;;;;;;5040078;28;19921;-68
2023/01/24 12:05:22;;;;;;;;;;;12.00;91.00;;;;;;5022428;28;19932;-69
2023/01/24 12:07:48;;;;;;;;;;;12.00;91.00;;;;;;5046121;28;20067;-69
2023/01/24 12:10:14;;;;;;;;;;;;;;;;;;5050826;28;20007;-67
2023/01/24 12:12:47;;;;;;;;;;;11.80;90.90;;;;;;5053318;28;19921;-69
2023/01/24 12:15:13;;;;;;;;;;;11.70;90.90;;;;;;5036982;28;19921;-68
2023/01/24 12:17:39;;;;;;;;;;;;;;;;;;5050417;28;19925;-68
2023/01/24 12:20:11;;;;;;;;;;;12.00;90.90;;;;;;5034578;28;19921;-68
2023/01/24 12:22:36;;;;;;;;;;;11.80;90.90;;;;;;5016701;28;19975;-69
2023/01/24 12:25:02;;;;;;;;;;;12.00;90.90;;;;;;5040300;28;20037;-68
2023/01/24 12:27:29;;;;;;;;;;;12.00;90.90;;;;;;5048436;28;19944;-68
2023/01/24 12:30:13;;;;;;;;;;;12.00;90.90;;;;;;5032465;28;19972;-69
2023/01/24 12:32:44;;;;;;;;;;;12.10;90.80;;;;;;5032937;28;19929;-67
2023/01/24 12:35:10;;;;;;;;;;;;;;;;;;5030935;28;20004;-69
2023/01/24 12:37:41;;;;;;;;;;;11.90;90.80;;;;;;5033601;28;19928;-67
2023/01/24 12:40:07;;;;;;;;;;;;;;;;;;5030677;28;20004;-62
2023/01/24 12:42:39;;;;;;;;;;;12.00;90.80;;;;;;5050878;28;20033;-66
2023/01/24 12:45:10;;;;;;;;;;;11.90;90.90;;;;;;5017010;28;20608;-67
2023/01/24 12:47:50;;;;;;;;;;;12.00;90.90;;;;;;4996935;28;19922;-68
2023/01/24 12:50:30;;;;;;;;;;;12.00;90.90;;;;;;5014216;28;19968;-67
2023/01/24 12:53:01;;;;;;;;;;;12.20;91.00;;;;;;5016699;28;19928;-68
2023/01/24 12:55:27;;;;;;;;;;;;;;;;;;5052426;28;19964;-69
2023/01/24 12:58:00;;;;;;;;;;;12.00;91.00;;;;;;5033843;28;19928;-68
2023/01/24 13:00:26;;;;;;;;;;;;;;;;;;5013582;28;19921;-66
2023/01/24 13:02:53;;;;;;;;;;;12.10;91.00;;;;;;5029962;28;19921;-70
2023/01/24 13:05:38;;;;;;;;;;;11.90;90.90;;;;;;5033160;28;19925;-68
2023/01/24 13:08:13;;;;;;;;;;;11.90;90.90;;;;;;5032603;28;19921;-68
2023/01/24 13:10:39;;;;;;;;;;;;;;;;;;5033803;28;20325;-68
2023/01/24 13:13:05;;;;;;;;;;;12.00;91.00;;;;;;5033196;28;19927;-67
2023/01/24 13:15:31;;;;;;;;;;;;;;;;;;5031982;28;19921;-67
2023/01/24 13:18:03;;;;;;;;;;;11.80;91.00;;;;;;5065268;28;19928;-67
2023/01/24 13:20:29;;;;;;;;;;;;;;;;;;5033935;28;20352;-67
2023/01/24 13:23:05;;;;;;;;;;;11.90;90.90;;;;;;5033206;28;19921;-66
2023/01/24 13:25:31;;;;;;;;;;;;;;;;;;5032750;28;20016;-65
2023/01/24 13:28:03;;;;;;;;;;;12.20;91.10;;;;;;5033539;28;19921;-69
2023/01/24 13:30:29;;;;;;;;;;;;;;;;;;5032479;28;19928;-69
2023/01/24 13:32:57;;;;;;;;;;;12.00;91.00;;;;;;5032989;28;19927;-67
2023/01/24 13:35:26;;;;;;;;;;;11.80;90.90;;;;;;5031965;28;20421;-66
2023/01/24 13:38:02;;;;;;;;;;;11.70;90.90;;;;;;5033184;28;19921;-68
2023/01/24 13:40:30;;;;;;;;;;;12.00;90.90;;;;;;5033390;28;19928;-67
2023/01/24 13:42:59;;;;;;;;;;;;;;;;;;5032143;28;19920;-71
2023/01/24 13:45:25;;;;;;;;;;;12.00;90.90;;;;;;5033442;28;20367;-69
2023/01/24 13:47:51;;;;;;;;;;;11.90;90.80;;;;;;5035610;28;20434;-69
2023/01/24 13:50:23;;;;;;;;;;;12.10;90.90;;;;;;5053270;28;19975;-67
2023/01/24 13:52:50;;;;;;;;;;;;;;;;;;5035961;28;19928;-65
2023/01/24 13:55:18;;;;;;;;;;;11.60;90.70;;;;;;5015812;28;19929;-69
2023/01/24 13:57:44;;;;;;;;;;;11.70;90.70;;;;;;5033538;28;20009;-68
2023/01/24 14:00:12;;;;;;;;;;;11.60;90.60;;;;;;5033393;28;19960;-68
2023/01/24 14:02:41;;;;;;;;;;;11.80;90.70;;;;;;5042801;28;20307;-69
2023/01/24 14:05:26;;;;;;;;;;;11.70;90.50;;;;;;5040477;28;19943;-70
2023/01/24 14:07:51;;;;;;;;;;;11.70;90.50;;;;;;5051982;28;20286;-68
2023/01/24 14:10:17;;;;;;;;;;;11.80;90.60;;;;;;5035605;28;19920;-67
2023/01/24 14:12:54;;;;;;;;;;;11.60;90.60;;;;;;5034535;28;19921;-67
2023/01/24 14:15:29;;;;;;;;;;;11.80;90.70;;;;;;5052141;28;20370;-67
2023/01/24 14:17:55;;;;;;;;;;;11.70;90.70;;;;;;5054752;28;19978;-68
2023/01/24 14:20:29;;;;;;;;;;;12.00;90.80;;;;;;5055551;28;19924;-68
2023/01/24 14:22:56;;;;;;;;;;;11.70;90.70;;;;;;5061099;28;19921;-69
2023/01/24 14:25:25;;;;;;;;;;;11.70;90.70;;;;;;5055555;28;19928;-67
2023/01/24 14:27:58;;;;;;;;;;;11.80;90.70;;;;;;5056979;28;19921;-68
2023/01/24 14:30:24;;;;;;;;;;;;;;;;;;5053662;28;19974;-69
2023/01/24 14:32:50;;;;;;;;;;;11.60;90.60;;;;;;5056064;28;19921;-70
2023/01/24 14:35:18;;;;;;;;;;;11.80;90.70;;;;;;5056120;28;19921;-68
2023/01/24 14:37:46;;;;;;;;;;;11.80;90.60;;;;;;5055794;28;19920;-67
2023/01/24 14:40:22;;;;;;;;;;;11.60;90.50;;;;;;5056268;28;20397;-67
2023/01/24 14:42:48;;;;;;;;;;;11.60;90.60;;;;;;5021919;28;19920;-67
2023/01/24 14:45:15;;;;;;;;;;;11.70;90.60;;;;;;5038150;28;20305;-67
2023/01/24 14:47:41;;;;;;;;;;;11.60;90.60;;;;;;5034663;28;19921;-69
2023/01/24 14:50:22;;;;;;;;;;;11.60;90.60;;;;;;5054609;28;19920;-69
2023/01/24 14:52:47;;;;;;;;;;;11.60;90.50;;;;;;5051314;28;19920;-69
2023/01/24 14:55:13;;;;;;;;;;;;;;;;;;5035053;28;19924;-65
2023/01/24 14:57:41;;;;;;;;;;;11.50;90.30;;;;;;5046429;28;19931;-67
2023/01/24 15:00:10;;;;;;;;;;;11.60;90.50;;;;;;5040990;28;19921;-66
2023/01/24 15:02:36;;;;;;;;;;;12.10;90.70;;;;;;5036289;28;19921;-67
2023/01/24 15:05:02;;;;;;;;;;;11.50;90.60;;;;;;5035930;28;20362;-69
2023/01/24 15:07:27;;;;;;;;;;;11.70;90.60;;;;;;5041448;28;19921;-69
2023/01/24 15:09:53;;;;;;;;;;;11.50;90.50;;;;;;5055473;28;19967;-68
2023/01/24 15:12:19;;;;;;;;;;;;;;;;;;5031536;28;20038;-68
2023/01/24 15:14:50;;;;;;;;;;;11.70;90.60;;;;;;5052946;28;20004;-69
2023/01/24 15:17:24;;;;;;;;;;;11.40;90.50;;;;;;5054925;28;20007;-68
2023/01/24 15:19:52;;;;;;;;;;;11.60;90.50;;;;;;5055811;28;19921;-67
2023/01/24 15:22:21;;;;;;;;;;;11.60;90.70;;;;;;5017342;28;19921;-67
2023/01/24 15:24:51;;;;;;;;;;;11.70;90.70;;;;;;5049689;28;20325;-67